createdAt,value
2019-05-28T00:00:11.376Z,2.10
2019-05-28T00:02:40.476Z,2.73
2019-05-28T00:05:09.743Z,2.20
2019-05-28T00:07:38.839Z,2.60
2019-05-28T00:10:09.027Z,3.57
2019-05-28T00:12:38.606Z,4.30
2019-05-28T00:15:07.656Z,2.60
2019-05-28T00:17:36.683Z,2.00
2019-05-28T00:20:06.145Z,2.33
2019-05-28T00:22:35.276Z,3.40
2019-05-28T00:25:04.442Z,2.60
2019-05-28T00:27:33.541Z,2.30
2019-05-28T00:30:18.459Z,2.00
2019-05-28T00:32:33.253Z,1.97
2019-05-28T00:35:02.307Z,1.87
2019-05-28T00:37:31.344Z,3.53
2019-05-28T00:40:02.610Z,2.73
2019-05-28T00:42:31.133Z,2.60
2019-05-28T00:45:00.098Z,2.30
2019-05-28T00:47:29.066Z,1.83
2019-05-28T00:49:58.238Z,2.30
2019-05-28T00:52:27.383Z,1.90
2019-05-28T00:54:56.341Z,3.17
2019-05-28T00:57:25.916Z,1.80
2019-05-28T00:59:55.756Z,1.93
2019-05-28T01:02:24.796Z,2.50
2019-05-28T01:04:53.836Z,1.80
2019-05-28T01:07:22.860Z,1.87
2019-05-28T01:09:51.885Z,1.83
2019-05-28T01:12:20.941Z,2.33
2019-05-28T01:14:49.890Z,2.30
2019-05-28T01:17:18.937Z,1.80
2019-05-28T01:19:47.960Z,2.90
2019-05-28T01:22:17.001Z,2.60
2019-05-28T01:24:46.041Z,1.70
2019-05-28T01:27:18.714Z,1.80
2019-05-28T01:29:47.645Z,2.00
2019-05-28T01:32:16.698Z,1.87
2019-05-28T01:34:45.657Z,2.00
2019-05-28T01:37:14.608Z,2.20
2019-05-28T01:39:43.561Z,1.87
2019-05-28T01:42:12.521Z,2.23
2019-05-28T01:44:41.585Z,2.00
2019-05-28T01:47:10.628Z,3.90
2019-05-28T01:49:39.717Z,1.57
2019-05-28T01:52:08.745Z,2.50
2019-05-28T01:54:37.706Z,1.83
2019-05-28T01:57:06.731Z,2.47
2019-05-28T01:59:35.699Z,1.70
2019-05-28T02:02:04.736Z,2.07
2019-05-28T02:04:33.684Z,1.60
2019-05-28T02:07:02.719Z,1.80
2019-05-28T02:09:31.747Z,2.60
2019-05-28T02:12:00.774Z,1.63
2019-05-28T02:14:29.781Z,1.90
2019-05-28T02:16:58.750Z,1.70
2019-05-28T02:19:27.641Z,1.70
2019-05-28T02:21:56.613Z,1.80
2019-05-28T02:24:25.572Z,1.80
2019-05-28T02:26:54.600Z,1.60
2019-05-28T02:29:23.754Z,1.90
2019-05-28T02:31:52.834Z,1.80
2019-05-28T02:34:21.788Z,2.70
2019-05-28T02:36:50.834Z,1.60
2019-05-28T02:39:19.884Z,1.80
2019-05-28T02:41:48.895Z,1.83
2019-05-28T02:44:17.947Z,2.40
2019-05-28T02:46:47.040Z,1.70
2019-05-28T02:49:16.076Z,1.70
2019-05-28T02:51:45.318Z,1.90
2019-05-28T02:54:14.741Z,2.30
2019-05-28T02:56:45.020Z,2.60
2019-05-28T02:59:17.225Z,1.70
2019-05-28T03:01:47.741Z,1.97
2019-05-28T03:04:18.333Z,2.03
2019-05-28T03:07:06.685Z,2.20
2019-05-28T03:09:38.890Z,1.70
2019-05-28T03:12:07.853Z,2.30
2019-05-28T03:14:36.875Z,1.80
2019-05-28T03:17:06.100Z,3.77
2019-05-28T03:19:36.633Z,1.73
2019-05-28T03:22:08.265Z,2.13
2019-05-28T03:24:38.291Z,4.57
2019-05-28T03:27:07.333Z,2.03
2019-05-28T03:29:36.462Z,2.17
2019-05-28T03:32:08.541Z,1.87
2019-05-28T03:34:36.361Z,1.80
2019-05-28T03:37:06.112Z,1.80
2019-05-28T03:39:37.145Z,1.80
2019-05-28T03:42:06.186Z,1.70
2019-05-28T03:44:35.214Z,2.50
2019-05-28T03:47:04.295Z,2.00
2019-05-28T03:49:33.364Z,2.40
2019-05-28T03:52:02.394Z,2.03
2019-05-28T03:54:31.441Z,2.60
2019-05-28T03:57:00.561Z,2.27
2019-05-28T03:59:29.713Z,2.83
2019-05-28T04:01:58.672Z,4.50
2019-05-28T04:04:27.560Z,1.80
2019-05-28T04:06:56.665Z,1.90
2019-05-28T04:09:25.633Z,1.60
2019-05-28T04:11:54.744Z,2.07
2019-05-28T04:14:23.822Z,5.20
2019-05-28T04:16:52.847Z,1.70
2019-05-28T04:19:21.908Z,2.67
2019-05-28T04:21:50.869Z,2.10
2019-05-28T04:24:19.967Z,1.90
2019-05-28T04:26:48.993Z,11.63
2019-05-28T04:29:18.017Z,1.80
2019-05-28T04:31:47.084Z,2.63
2019-05-28T04:34:16.032Z,1.87
2019-05-28T04:36:45.010Z,1.90
2019-05-28T04:39:14.054Z,2.33
2019-05-28T04:41:43.094Z,2.97
2019-05-28T04:44:12.020Z,2.60
2019-05-28T04:46:41.066Z,2.23
2019-05-28T04:49:10.087Z,1.77
2019-05-28T04:51:39.165Z,2.47
2019-05-28T04:54:08.112Z,2.00
2019-05-28T04:56:36.996Z,2.10
2019-05-28T04:59:06.017Z,2.17
2019-05-28T05:01:34.965Z,1.83
2019-05-28T05:04:04.022Z,2.10
2019-05-28T05:06:32.956Z,1.97
2019-05-28T05:09:01.905Z,2.97
2019-05-28T05:11:30.865Z,2.50
2019-05-28T05:13:59.833Z,1.80
2019-05-28T05:16:28.782Z,2.07
2019-05-28T05:18:57.822Z,2.40
2019-05-28T05:21:26.846Z,1.73
2019-05-28T05:23:55.940Z,1.67
2019-05-28T05:26:24.873Z,1.70
2019-05-28T05:28:53.832Z,1.90
2019-05-28T05:31:22.768Z,1.90
2019-05-28T05:33:51.816Z,2.17
2019-05-28T05:36:20.767Z,1.70
2019-05-28T05:38:49.805Z,1.80
2019-05-28T05:41:18.825Z,2.00
2019-05-28T05:43:47.712Z,1.67
2019-05-28T05:46:16.655Z,1.70
2019-05-28T05:48:45.797Z,3.30
2019-05-28T05:51:14.813Z,2.50
2019-05-28T05:53:43.773Z,1.67
2019-05-28T05:56:12.809Z,2.50
2019-05-28T05:58:41.841Z,1.70
2019-05-28T06:01:10.899Z,2.00
2019-05-28T06:03:41.662Z,2.30
2019-05-28T06:06:10.673Z,1.80
2019-05-28T06:08:39.702Z,2.73
2019-05-28T06:11:08.717Z,1.90
2019-05-28T06:13:37.761Z,2.43
2019-05-28T06:16:06.782Z,2.43
2019-05-28T06:18:35.753Z,2.33
2019-05-28T06:21:14.056Z,1.63
2019-05-28T06:23:35.497Z,1.70
2019-05-28T06:26:04.601Z,1.60
2019-05-28T06:28:33.649Z,10.80
2019-05-28T06:31:02.666Z,24.63
2019-05-28T06:33:32.763Z,42.07
2019-05-28T06:36:01.762Z,37.27
2019-05-28T06:38:30.793Z,45.03
2019-05-28T06:40:59.836Z,88.07
2019-05-28T06:43:28.884Z,121.13
2019-05-28T06:45:57.928Z,129.67
2019-05-28T06:48:26.881Z,127.07
2019-05-28T06:50:55.931Z,91.67
2019-05-28T06:53:24.965Z,128.83
2019-05-28T06:55:53.967Z,127.70
2019-05-28T06:58:38.031Z,121.60
2019-05-28T07:00:53.695Z,133.73
2019-05-28T07:03:22.754Z,135.13
2019-05-28T07:06:05.570Z,113.53
2019-05-28T07:08:22.492Z,127.53
2019-05-28T07:10:57.606Z,104.10
2019-05-28T07:13:22.172Z,91.73
2019-05-28T07:15:51.205Z,101.70
2019-05-28T07:18:20.445Z,117.70
2019-05-28T07:20:49.481Z,101.33
2019-05-28T07:23:18.457Z,107.13
2019-05-28T07:25:47.413Z,105.30
2019-05-28T07:28:16.381Z,97.27
2019-05-28T07:30:45.427Z,86.37
2019-05-28T07:33:14.555Z,72.40
2019-05-28T07:35:46.240Z,94.80
2019-05-28T07:38:14.218Z,59.77
2019-05-28T07:40:43.251Z,64.90
2019-05-28T07:43:12.322Z,82.73
2019-05-28T07:45:41.317Z,82.13
2019-05-28T07:48:10.353Z,90.53
2019-05-28T07:50:39.390Z,73.43
2019-05-28T07:53:39.597Z,75.70
2019-05-28T07:55:58.275Z,78.50
2019-05-28T07:58:27.295Z,80.13
2019-05-28T08:00:56.348Z,61.00
2019-05-28T08:03:25.481Z,60.77
2019-05-28T08:05:54.533Z,73.47
2019-05-28T08:08:25.066Z,64.93
2019-05-28T08:10:54.190Z,59.53
2019-05-28T08:13:37.504Z,60.80
2019-05-28T08:15:53.873Z,71.97
2019-05-28T08:18:22.914Z,49.60
2019-05-28T08:20:51.720Z,51.30
2019-05-28T08:23:20.773Z,46.40
2019-05-28T08:25:49.724Z,56.03
2019-05-28T08:28:20.499Z,43.37
2019-05-28T08:30:49.561Z,51.83
2019-05-28T08:33:18.639Z,45.93
2019-05-28T08:35:47.677Z,37.43
2019-05-28T08:38:16.653Z,37.93
2019-05-28T08:40:45.684Z,46.00
2019-05-28T08:43:14.734Z,42.50
2019-05-28T08:45:43.768Z,42.40
2019-05-28T08:48:12.805Z,35.17
2019-05-28T08:50:41.833Z,35.83
2019-05-28T08:53:10.821Z,37.60
2019-05-28T08:55:39.865Z,32.33
2019-05-28T08:58:08.998Z,29.00
2019-05-28T09:00:43.162Z,37.00
2019-05-28T09:03:12.607Z,23.20
2019-05-28T09:05:41.626Z,27.87
2019-05-28T09:08:10.777Z,26.00
2019-05-28T09:10:39.848Z,29.63
2019-05-28T09:13:08.897Z,23.20
2019-05-28T09:15:37.925Z,26.43
2019-05-28T09:18:07.019Z,23.30
2019-05-28T09:20:36.021Z,27.20
2019-05-28T09:23:05.078Z,24.90
2019-05-28T09:25:34.111Z,27.77
2019-05-28T09:28:03.102Z,23.03
2019-05-28T09:30:32.234Z,17.23
2019-05-28T09:33:01.468Z,15.63
2019-05-28T09:35:43.931Z,25.90
2019-05-28T09:38:01.413Z,21.60
2019-05-28T09:40:48.409Z,23.47
2019-05-28T09:43:01.161Z,20.10
2019-05-28T09:45:30.115Z,23.80
2019-05-28T09:47:59.198Z,16.83
2019-05-28T09:50:31.033Z,20.70
2019-05-28T09:52:58.935Z,18.60
2019-05-28T09:55:28.446Z,26.03
2019-05-28T09:57:57.490Z,19.63
2019-05-28T10:00:26.996Z,19.67
2019-05-28T10:02:56.031Z,17.97
2019-05-28T10:05:25.061Z,17.43
2019-05-28T10:07:54.099Z,13.60
2019-05-28T10:10:23.238Z,26.17
2019-05-28T10:12:52.326Z,16.83
2019-05-28T10:15:21.645Z,11.93
2019-05-28T10:17:50.611Z,16.30
2019-05-28T10:20:21.528Z,14.70
2019-05-28T10:22:50.748Z,19.33
2019-05-28T10:25:20.122Z,16.43
2019-05-28T10:28:00.228Z,14.73
2019-05-28T10:30:20.802Z,14.40
2019-05-28T10:32:49.861Z,14.33
2019-05-28T10:35:19.330Z,18.00
2019-05-28T10:37:48.452Z,14.60
2019-05-28T10:40:17.896Z,11.37
2019-05-28T10:42:46.946Z,13.63
2019-05-28T10:45:18.065Z,14.40
2019-05-28T10:47:47.109Z,18.13
2019-05-28T10:50:17.630Z,14.30
2019-05-28T10:52:46.688Z,12.00
2019-05-28T10:55:16.309Z,14.50
2019-05-28T10:57:45.352Z,11.70
2019-05-28T11:00:15.069Z,15.20
2019-05-28T11:02:44.218Z,11.73
2019-05-28T11:05:14.721Z,12.00
2019-05-28T11:07:43.776Z,11.27
2019-05-28T11:10:23.725Z,10.50
2019-05-28T11:12:45.561Z,10.57
2019-05-28T11:15:14.917Z,9.97
2019-05-28T11:17:43.937Z,11.40
2019-05-28T11:20:13.973Z,8.10
2019-05-28T11:22:43.029Z,9.93
2019-05-28T11:25:12.784Z,10.17
2019-05-28T11:27:41.814Z,8.43
2019-05-28T11:30:11.361Z,10.93
2019-05-28T11:32:40.397Z,8.43
2019-05-28T11:35:09.934Z,8.70
2019-05-28T11:37:38.983Z,7.97
2019-05-28T11:40:08.470Z,7.70
2019-05-28T11:42:37.517Z,6.63
2019-05-28T11:45:08.014Z,10.00
2019-05-28T11:47:37.305Z,6.43
2019-05-28T11:50:07.057Z,8.30
2019-05-28T11:52:36.103Z,6.00
2019-05-28T11:55:07.602Z,8.70
2019-05-28T11:57:36.639Z,8.70
2019-05-28T12:00:06.677Z,8.33
2019-05-28T12:02:35.730Z,8.17
2019-05-28T12:05:06.399Z,9.17
2019-05-28T12:07:35.421Z,7.10
2019-05-28T12:10:05.041Z,14.03
2019-05-28T12:12:35.850Z,13.00
2019-05-28T12:15:05.961Z,11.40
2019-05-28T12:17:42.481Z,6.73
2019-05-28T12:20:06.712Z,6.10
2019-05-28T12:22:35.742Z,6.40
2019-05-28T12:25:06.587Z,6.07
2019-05-28T12:27:35.653Z,6.40
2019-05-28T12:30:06.149Z,8.30
2019-05-28T12:32:35.183Z,6.77
2019-05-28T12:35:04.884Z,8.63
2019-05-28T12:37:47.237Z,5.83
2019-05-28T12:40:05.371Z,6.40
2019-05-28T12:42:34.398Z,8.20
2019-05-28T12:45:09.348Z,5.80
2019-05-28T12:47:34.198Z,4.60
2019-05-28T12:50:17.906Z,7.40
2019-05-28T12:52:34.175Z,6.67
2019-05-28T12:55:03.181Z,5.47
2019-05-28T12:57:32.149Z,8.00
2019-05-28T13:00:01.144Z,9.23
2019-05-28T13:02:30.249Z,5.27
2019-05-28T13:04:59.246Z,6.80
2019-05-28T13:07:28.294Z,5.73
2019-05-28T13:09:57.253Z,5.33
2019-05-28T13:12:26.148Z,7.37
2019-05-28T13:14:55.057Z,6.83
2019-05-28T13:17:24.107Z,5.60
2019-05-28T13:19:53.081Z,6.87
2019-05-28T13:22:22.030Z,4.97
2019-05-28T13:24:51.004Z,4.70
2019-05-28T13:27:19.950Z,6.90
2019-05-28T13:29:48.995Z,5.33
2019-05-28T13:32:18.037Z,5.90
2019-05-28T13:34:47.146Z,5.27
2019-05-28T13:37:16.307Z,6.83
2019-05-28T13:39:45.366Z,4.40
2019-05-28T13:42:14.415Z,5.50
2019-05-28T13:44:43.538Z,3.57
2019-05-28T13:47:31.909Z,6.20
2019-05-28T13:49:43.324Z,3.97
2019-05-28T13:52:12.783Z,6.50
2019-05-28T13:54:41.902Z,4.30
2019-05-28T13:57:10.971Z,4.77
2019-05-28T13:59:40.028Z,5.30
2019-05-28T14:02:09.046Z,4.83
2019-05-28T14:04:38.094Z,7.00
2019-05-28T14:07:07.129Z,5.43
2019-05-28T14:09:36.188Z,8.57
2019-05-28T14:12:05.377Z,4.37
2019-05-28T14:14:34.436Z,5.80
2019-05-28T14:17:03.353Z,5.43
2019-05-28T14:19:32.456Z,6.27
2019-05-28T14:22:04.310Z,4.20
2019-05-28T14:24:32.051Z,2.87
2019-05-28T14:27:00.984Z,9.40
2019-05-28T14:29:29.990Z,3.63
2019-05-28T14:31:58.935Z,5.83
2019-05-28T14:34:27.889Z,8.00
2019-05-28T14:36:56.829Z,6.03
2019-05-28T14:39:39.964Z,4.30
2019-05-28T14:41:56.517Z,6.57
2019-05-28T14:44:25.610Z,6.10
2019-05-28T14:46:54.757Z,5.20
2019-05-28T14:49:23.813Z,5.23
2019-05-28T14:51:52.717Z,7.40
2019-05-28T14:54:21.752Z,7.43
2019-05-28T14:56:50.922Z,6.23
2019-05-28T14:59:19.962Z,6.37
2019-05-28T15:01:48.916Z,5.43
2019-05-28T15:04:17.886Z,4.17
2019-05-28T15:06:46.860Z,6.00
2019-05-28T15:09:20.701Z,4.83
2019-05-28T15:11:46.603Z,4.90
2019-05-28T15:14:15.626Z,7.30
2019-05-28T15:16:44.672Z,5.80
2019-05-28T15:19:13.817Z,6.10
2019-05-28T15:21:42.905Z,4.40
2019-05-28T15:24:11.980Z,8.40
2019-05-28T15:26:41.041Z,4.60
2019-05-28T15:29:10.080Z,4.40
2019-05-28T15:31:39.068Z,3.50
2019-05-28T15:34:08.139Z,4.90
2019-05-28T15:36:37.251Z,6.03
2019-05-28T15:39:07.091Z,4.13
2019-05-28T15:41:36.066Z,4.20
2019-05-28T15:44:05.116Z,4.90
2019-05-28T15:46:34.015Z,5.07
2019-05-28T15:49:03.058Z,4.33
2019-05-28T15:51:31.993Z,4.43
2019-05-28T15:54:01.033Z,4.53
2019-05-28T15:56:29.985Z,5.00
2019-05-28T15:58:58.932Z,4.20
2019-05-28T16:01:27.804Z,4.30
2019-05-28T16:03:56.706Z,3.83
2019-05-28T16:06:25.668Z,3.70
2019-05-28T16:08:54.728Z,4.87
2019-05-28T16:11:23.749Z,4.40
2019-05-28T16:13:52.774Z,3.43
2019-05-28T16:16:21.741Z,4.87
2019-05-28T16:18:50.690Z,3.97
2019-05-28T16:21:19.757Z,5.10
2019-05-28T16:23:48.729Z,3.90
2019-05-28T16:26:17.794Z,2.70
2019-05-28T16:28:46.792Z,3.63
2019-05-28T16:31:15.817Z,4.40
2019-05-28T16:33:44.885Z,3.57
2019-05-28T16:36:13.943Z,4.53
2019-05-28T16:38:43.001Z,4.10
2019-05-28T16:41:11.945Z,5.70
2019-05-28T16:43:40.928Z,3.07
2019-05-28T16:46:09.881Z,3.60
2019-05-28T16:48:38.882Z,8.03
2019-05-28T16:51:07.813Z,4.23
2019-05-28T16:53:36.888Z,4.60
2019-05-28T16:56:05.958Z,3.27
2019-05-28T16:58:35.097Z,3.33
2019-05-28T17:01:21.338Z,5.60
2019-05-28T17:03:34.955Z,5.07
2019-05-28T17:06:04.037Z,3.50
2019-05-28T17:08:33.106Z,4.60
2019-05-28T17:11:02.114Z,5.07
2019-05-28T17:13:31.173Z,5.50
2019-05-28T17:16:00.150Z,3.03
2019-05-28T17:18:29.029Z,5.30
2019-05-28T17:20:58.078Z,3.60
2019-05-28T17:23:27.047Z,7.93
2019-05-28T17:25:56.116Z,2.90
2019-05-28T17:28:25.293Z,3.90
2019-05-28T17:30:54.322Z,3.10
2019-05-28T17:33:23.289Z,4.20
2019-05-28T17:35:52.316Z,3.70
2019-05-28T17:38:21.353Z,3.23
2019-05-28T17:40:50.307Z,3.07
2019-05-28T17:43:19.354Z,3.43
2019-05-28T17:45:48.305Z,2.53
2019-05-28T17:48:17.367Z,3.80
2019-05-28T17:50:46.385Z,3.50
2019-05-28T17:53:15.427Z,3.63
2019-05-28T17:55:44.477Z,2.63
2019-05-28T17:58:13.449Z,3.60
2019-05-28T18:00:42.489Z,4.03
2019-05-28T18:03:11.489Z,2.40
2019-05-28T18:05:40.525Z,3.00
2019-05-28T18:08:09.497Z,3.87
2019-05-28T18:10:38.518Z,4.00
2019-05-28T18:13:07.488Z,2.83
2019-05-28T18:15:36.529Z,4.40
2019-05-28T18:18:05.612Z,2.67
2019-05-28T18:20:34.945Z,4.07
2019-05-28T18:23:03.930Z,5.60
2019-05-28T18:25:32.951Z,2.60
2019-05-28T18:28:01.898Z,2.70
2019-05-28T18:30:30.929Z,3.70
2019-05-28T18:32:59.968Z,3.07
2019-05-28T18:35:28.916Z,2.53
2019-05-28T18:38:03.166Z,3.80
2019-05-28T18:40:28.566Z,2.80
2019-05-28T18:42:57.637Z,3.90
2019-05-28T18:45:26.653Z,4.07
2019-05-28T18:47:55.616Z,4.10
2019-05-28T18:50:24.665Z,6.27
2019-05-28T18:52:53.697Z,3.43
2019-05-28T18:55:23.614Z,2.90
2019-05-28T18:57:52.936Z,2.80
2019-05-28T19:00:22.302Z,5.40
2019-05-28T19:02:51.327Z,3.33
2019-05-28T19:05:20.379Z,3.83
2019-05-28T19:07:49.490Z,4.53
2019-05-28T19:10:18.570Z,4.73
2019-05-28T19:12:48.025Z,3.00
2019-05-28T19:15:17.281Z,3.07
2019-05-28T19:17:46.173Z,2.97
2019-05-28T19:20:16.654Z,5.17
2019-05-28T19:22:45.697Z,3.53
2019-05-28T19:25:14.938Z,2.70
2019-05-28T19:27:43.974Z,3.50
2019-05-28T19:30:13.323Z,3.70
2019-05-28T19:32:42.445Z,2.57
2019-05-28T19:35:11.677Z,3.83
2019-05-28T19:37:41.224Z,4.23
2019-05-28T19:40:10.644Z,4.63
2019-05-28T19:42:39.603Z,5.93
2019-05-28T19:45:09.482Z,3.50
2019-05-28T19:47:39.262Z,2.83
2019-05-28T19:50:09.316Z,2.60
2019-05-28T19:52:39.265Z,4.17
2019-05-28T19:55:09.609Z,3.60
2019-05-28T19:57:39.389Z,4.10
2019-05-28T20:00:09.960Z,3.90
2019-05-28T20:02:39.957Z,3.77
2019-05-28T20:05:10.247Z,3.50
2019-05-28T20:07:40.415Z,8.30
2019-05-28T20:10:11.259Z,5.77
2019-05-28T20:12:41.141Z,3.60
2019-05-28T20:15:11.773Z,4.03
2019-05-28T20:17:41.937Z,2.90
2019-05-28T20:20:11.939Z,3.10
2019-05-28T20:22:41.816Z,3.40
2019-05-28T20:25:11.979Z,2.80
2019-05-28T20:27:41.081Z,2.70
2019-05-28T20:30:11.502Z,2.80
2019-05-28T20:32:40.546Z,3.47
2019-05-28T20:35:10.541Z,3.20
2019-05-28T20:37:39.516Z,4.10
2019-05-28T20:40:10.953Z,2.67
2019-05-28T20:42:40.068Z,4.57
2019-05-28T20:45:12.098Z,3.67
2019-05-28T20:47:41.332Z,2.33
2019-05-28T20:50:11.980Z,4.17
2019-05-28T20:52:41.245Z,4.07
2019-05-28T20:55:11.581Z,3.00
2019-05-28T20:57:41.321Z,2.33
2019-05-28T21:00:11.185Z,2.73
2019-05-28T21:02:40.196Z,2.70
2019-05-28T21:05:10.393Z,2.67
2019-05-28T21:07:39.505Z,4.13
2019-05-28T21:10:10.693Z,3.40
2019-05-28T21:12:44.276Z,2.53
2019-05-28T21:15:15.571Z,3.13
2019-05-28T21:17:42.589Z,3.50
2019-05-28T21:20:13.494Z,3.00
2019-05-28T21:22:43.403Z,2.70
2019-05-28T21:25:14.585Z,3.20
2019-05-28T21:27:44.435Z,2.90
2019-05-28T21:30:14.527Z,3.60
2019-05-28T21:32:45.531Z,2.30
2019-05-28T21:35:15.249Z,2.50
2019-05-28T21:37:44.208Z,2.97
2019-05-28T21:40:13.541Z,2.53
2019-05-28T21:42:56.507Z,2.07
2019-05-28T21:45:13.969Z,2.87
2019-05-28T21:47:43.021Z,2.90
2019-05-28T21:50:13.763Z,6.23
2019-05-28T21:52:42.657Z,2.30
2019-05-28T21:55:12.892Z,4.00
2019-05-28T21:57:41.936Z,4.53
2019-05-28T22:00:19.760Z,4.23
2019-05-28T22:02:48.861Z,2.87
2019-05-28T22:05:18.297Z,2.90
2019-05-28T22:07:47.318Z,2.53
2019-05-28T22:10:16.356Z,4.07
2019-05-28T22:12:45.387Z,3.40
2019-05-28T22:15:14.880Z,3.03
2019-05-28T22:17:43.828Z,2.10
2019-05-28T22:20:13.069Z,3.43
2019-05-28T22:22:41.945Z,2.20
2019-05-28T22:25:10.976Z,2.83
2019-05-28T22:27:39.941Z,2.77
2019-05-28T22:30:09.741Z,2.60
2019-05-28T22:32:38.791Z,3.27
2019-05-28T22:35:08.229Z,2.80
2019-05-28T22:37:37.360Z,3.40
2019-05-28T22:40:07.642Z,3.43
2019-05-28T22:42:36.718Z,2.70
2019-05-28T22:45:07.128Z,2.90
2019-05-28T22:47:36.241Z,3.20
2019-05-28T22:50:19.644Z,7.67
2019-05-28T22:52:36.734Z,3.80
2019-05-28T22:55:06.083Z,6.30
2019-05-28T22:57:35.120Z,2.13
2019-05-28T23:00:06.628Z,4.30
2019-05-28T23:02:35.757Z,4.93
2019-05-28T23:05:05.215Z,10.13
2019-05-28T23:07:34.264Z,2.30
2019-05-28T23:10:03.552Z,5.40
2019-05-28T23:12:32.560Z,2.10
2019-05-28T23:15:01.981Z,2.87
2019-05-28T23:17:31.110Z,2.30
2019-05-28T23:20:00.663Z,4.40
2019-05-28T23:22:29.756Z,4.30
2019-05-28T23:24:58.720Z,2.10
2019-05-28T23:27:27.740Z,5.20
2019-05-28T23:29:56.849Z,2.13
2019-05-28T23:32:25.941Z,1.70
2019-05-28T23:34:56.374Z,4.03
2019-05-28T23:37:25.484Z,2.77
2019-05-28T23:39:54.528Z,3.07
2019-05-28T23:42:23.484Z,1.90
2019-05-28T23:44:52.462Z,2.00
2019-05-28T23:47:21.484Z,2.93
2019-05-28T23:49:50.446Z,2.37
2019-05-28T23:52:19.385Z,4.17
2019-05-28T23:54:48.426Z,2.80
2019-05-28T23:57:18.181Z,2.23
2019-05-28T23:59:47.287Z,2.03
